sensor_id;sensor_type;location;lat;lon;timestamp;P1;durP1;ratioP1;P2;durP2;ratioP2
49710;SDS011;35602;44.534;18.696;2023-06-10T00:02:34;13.00;;;11.70;;
49710;SDS011;35602;44.534;18.696;2023-06-10T00:07:35;13.45;;;12.20;;
49710;SDS011;35602;44.534;18.696;2023-06-10T00:12:38;13.10;;;11.88;;
49710;SDS011;35602;44.534;18.696;2023-06-10T00:17:40;12.32;;;11.12;;
49710;SDS011;35602;44.534;18.696;2023-06-10T00:22:42;11.90;;;10.80;;
49710;SDS011;35602;44.534;18.696;2023-06-10T00:27:45;12.88;;;11.57;;
49710;SDS011;35602;44.534;18.696;2023-06-10T00:32:46;12.90;;;11.70;;
49710;SDS011;35602;44.534;18.696;2023-06-10T00:37:47;13.52;;;12.23;;
49710;SDS011;35602;44.534;18.696;2023-06-10T00:42:48;12.80;;;11.50;;
49710;SDS011;35602;44.534;18.696;2023-06-10T00:47:49;12.98;;;11.68;;
49710;SDS011;35602;44.534;18.696;2023-06-10T00:52:50;13.00;;;11.68;;
49710;SDS011;35602;44.534;18.696;2023-06-10T00:57:52;13.05;;;11.75;;
49710;SDS011;35602;44.534;18.696;2023-06-10T01:02:53;12.63;;;11.43;;
49710;SDS011;35602;44.534;18.696;2023-06-10T01:08:03;12.60;;;11.43;;
49710;SDS011;35602;44.534;18.696;2023-06-10T01:13:25;12.55;;;11.35;;
49710;SDS011;35602;44.534;18.696;2023-06-10T01:23:33;13.02;;;11.75;;
49710;SDS011;35602;44.534;18.696;2023-06-10T01:28:54;12.48;;;11.20;;
49710;SDS011;35602;44.534;18.696;2023-06-10T01:34:00;13.23;;;11.93;;
49710;SDS011;35602;44.534;18.696;2023-06-10T01:39:02;12.48;;;11.27;;
49710;SDS011;35602;44.534;18.696;2023-06-10T01:44:05;11.77;;;10.63;;
49710;SDS011;35602;44.534;18.696;2023-06-10T01:49:06;12.60;;;11.30;;
49710;SDS011;35602;44.534;18.696;2023-06-10T01:54:07;12.45;;;10.98;;
49710;SDS011;35602;44.534;18.696;2023-06-10T01:59:08;11.85;;;10.68;;
49710;SDS011;35602;44.534;18.696;2023-06-10T02:04:08;11.88;;;10.70;;
49710;SDS011;35602;44.534;18.696;2023-06-10T02:09:09;12.43;;;11.12;;
49710;SDS011;35602;44.534;18.696;2023-06-10T02:14:10;12.40;;;11.20;;
49710;SDS011;35602;44.534;18.696;2023-06-10T02:19:11;11.95;;;10.75;;
49710;SDS011;35602;44.534;18.696;2023-06-10T02:24:12;12.05;;;10.85;;
49710;SDS011;35602;44.534;18.696;2023-06-10T02:29:13;11.55;;;10.27;;
49710;SDS011;35602;44.534;18.696;2023-06-10T02:34:14;12.55;;;11.23;;
49710;SDS011;35602;44.534;18.696;2023-06-10T02:39:15;10.85;;;9.75;;
49710;SDS011;35602;44.534;18.696;2023-06-10T02:44:17;11.18;;;10.00;;
49710;SDS011;35602;44.534;18.696;2023-06-10T02:49:18;11.70;;;9.90;;
49710;SDS011;35602;44.534;18.696;2023-06-10T02:54:19;11.27;;;10.18;;
49710;SDS011;35602;44.534;18.696;2023-06-10T02:59:20;11.27;;;10.27;;
49710;SDS011;35602;44.534;18.696;2023-06-10T03:04:22;11.20;;;10.10;;
49710;SDS011;35602;44.534;18.696;2023-06-10T03:09:26;11.25;;;9.90;;
49710;SDS011;35602;44.534;18.696;2023-06-10T03:14:26;10.98;;;9.98;;
49710;SDS011;35602;44.534;18.696;2023-06-10T03:19:27;11.35;;;10.25;;
49710;SDS011;35602;44.534;18.696;2023-06-10T03:24:28;11.30;;;10.20;;
49710;SDS011;35602;44.534;18.696;2023-06-10T03:29:29;11.40;;;10.30;;
49710;SDS011;35602;44.534;18.696;2023-06-10T03:34:30;10.93;;;9.88;;
49710;SDS011;35602;44.534;18.696;2023-06-10T03:39:30;12.25;;;11.05;;
49710;SDS011;35602;44.534;18.696;2023-06-10T03:44:32;11.35;;;10.20;;
49710;SDS011;35602;44.534;18.696;2023-06-10T03:49:34;10.05;;;9.13;;
49710;SDS011;35602;44.534;18.696;2023-06-10T03:54:36;10.43;;;9.43;;
49710;SDS011;35602;44.534;18.696;2023-06-10T03:59:37;11.63;;;10.43;;
49710;SDS011;35602;44.534;18.696;2023-06-10T04:04:38;10.70;;;9.68;;
49710;SDS011;35602;44.534;18.696;2023-06-10T04:09:39;10.65;;;9.65;;
49710;SDS011;35602;44.534;18.696;2023-06-10T04:14:39;12.30;;;9.70;;
49710;SDS011;35602;44.534;18.696;2023-06-10T04:19:41;10.93;;;9.82;;
49710;SDS011;35602;44.534;18.696;2023-06-10T04:24:41;10.45;;;9.45;;
49710;SDS011;35602;44.534;18.696;2023-06-10T04:29:42;12.80;;;10.02;;
49710;SDS011;35602;44.534;18.696;2023-06-10T04:34:43;11.73;;;10.52;;
49710;SDS011;35602;44.534;18.696;2023-06-10T04:39:44;11.75;;;10.02;;
49710;SDS011;35602;44.534;18.696;2023-06-10T04:44:45;10.73;;;9.60;;
49710;SDS011;35602;44.534;18.696;2023-06-10T04:49:46;10.63;;;9.63;;
49710;SDS011;35602;44.534;18.696;2023-06-10T04:54:47;11.25;;;10.15;;
49710;SDS011;35602;44.534;18.696;2023-06-10T04:59:48;10.30;;;9.20;;
49710;SDS011;35602;44.534;18.696;2023-06-10T05:04:49;10.77;;;9.65;;
49710;SDS011;35602;44.534;18.696;2023-06-10T05:09:50;10.50;;;9.48;;
49710;SDS011;35602;44.534;18.696;2023-06-10T05:14:51;10.55;;;9.43;;
49710;SDS011;35602;44.534;18.696;2023-06-10T05:19:52;9.63;;;8.70;;
49710;SDS011;35602;44.534;18.696;2023-06-10T05:24:53;10.10;;;9.18;;
49710;SDS011;35602;44.534;18.696;2023-06-10T05:29:54;11.73;;;9.88;;
49710;SDS011;35602;44.534;18.696;2023-06-10T05:34:55;10.65;;;9.65;;
49710;SDS011;35602;44.534;18.696;2023-06-10T05:39:55;10.98;;;9.73;;
49710;SDS011;35602;44.534;18.696;2023-06-10T05:44:56;10.80;;;9.80;;
49710;SDS011;35602;44.534;18.696;2023-06-10T05:49:57;11.00;;;9.75;;
49710;SDS011;35602;44.534;18.696;2023-06-10T05:54:58;11.57;;;10.13;;
49710;SDS011;35602;44.534;18.696;2023-06-10T05:59:59;11.52;;;10.43;;
49710;SDS011;35602;44.534;18.696;2023-06-10T06:05:00;11.48;;;10.30;;
49710;SDS011;35602;44.534;18.696;2023-06-10T06:10:01;11.30;;;10.23;;
49710;SDS011;35602;44.534;18.696;2023-06-10T06:15:03;12.02;;;10.52;;
49710;SDS011;35602;44.534;18.696;2023-06-10T06:20:05;9.75;;;8.75;;
49710;SDS011;35602;44.534;18.696;2023-06-10T06:25:06;11.77;;;10.10;;
49710;SDS011;35602;44.534;18.696;2023-06-10T06:30:08;10.65;;;9.55;;
49710;SDS011;35602;44.534;18.696;2023-06-10T06:35:09;10.57;;;9.48;;
49710;SDS011;35602;44.534;18.696;2023-06-10T06:40:10;10.45;;;9.43;;
49710;SDS011;35602;44.534;18.696;2023-06-10T06:45:12;11.00;;;9.93;;
49710;SDS011;35602;44.534;18.696;2023-06-10T06:50:13;10.73;;;9.63;;
49710;SDS011;35602;44.534;18.696;2023-06-10T06:55:13;11.00;;;9.80;;
49710;SDS011;35602;44.534;18.696;2023-06-10T07:00:15;10.68;;;9.57;;
49710;SDS011;35602;44.534;18.696;2023-06-10T07:05:16;11.40;;;10.00;;
49710;SDS011;35602;44.534;18.696;2023-06-10T07:10:17;13.05;;;10.15;;
49710;SDS011;35602;44.534;18.696;2023-06-10T07:15:18;11.57;;;10.38;;
49710;SDS011;35602;44.534;18.696;2023-06-10T07:20:19;11.88;;;10.65;;
49710;SDS011;35602;44.534;18.696;2023-06-10T07:25:19;12.13;;;10.85;;
49710;SDS011;35602;44.534;18.696;2023-06-10T07:30:20;11.73;;;10.00;;
49710;SDS011;35602;44.534;18.696;2023-06-10T07:35:21;12.90;;;11.05;;
49710;SDS011;35602;44.534;18.696;2023-06-10T07:40:22;12.68;;;11.38;;
49710;SDS011;35602;44.534;18.696;2023-06-10T07:45:23;13.30;;;10.90;;
49710;SDS011;35602;44.534;18.696;2023-06-10T07:50:25;12.35;;;11.05;;
49710;SDS011;35602;44.534;18.696;2023-06-10T07:55:26;12.15;;;10.45;;
49710;SDS011;35602;44.534;18.696;2023-06-10T08:00:26;12.00;;;10.70;;
49710;SDS011;35602;44.534;18.696;2023-06-10T08:05:27;11.70;;;10.48;;
49710;SDS011;35602;44.534;18.696;2023-06-10T08:10:29;12.13;;;10.82;;
49710;SDS011;35602;44.534;18.696;2023-06-10T08:15:31;12.25;;;10.52;;
49710;SDS011;35602;44.534;18.696;2023-06-10T08:20:31;12.77;;;11.48;;
49710;SDS011;35602;44.534;18.696;2023-06-10T08:25:32;11.88;;;10.60;;
49710;SDS011;35602;44.534;18.696;2023-06-10T08:30:33;13.02;;;10.48;;
49710;SDS011;35602;44.534;18.696;2023-06-10T08:35:34;11.90;;;10.70;;
49710;SDS011;35602;44.534;18.696;2023-06-10T08:40:35;12.10;;;10.88;;
49710;SDS011;35602;44.534;18.696;2023-06-10T08:45:36;10.93;;;9.93;;
49710;SDS011;35602;44.534;18.696;2023-06-10T08:50:37;11.52;;;10.43;;
49710;SDS011;35602;44.534;18.696;2023-06-10T08:55:41;13.43;;;10.45;;
49710;SDS011;35602;44.534;18.696;2023-06-10T09:00:44;11.35;;;10.25;;
49710;SDS011;35602;44.534;18.696;2023-06-10T09:05:46;12.15;;;10.85;;
49710;SDS011;35602;44.534;18.696;2023-06-10T09:10:48;11.82;;;10.63;;
49710;SDS011;35602;44.534;18.696;2023-06-10T09:15:50;12.65;;;10.73;;
49710;SDS011;35602;44.534;18.696;2023-06-10T09:20:51;12.07;;;10.82;;
49710;SDS011;35602;44.534;18.696;2023-06-10T09:25:55;11.45;;;10.35;;
49710;SDS011;35602;44.534;18.696;2023-06-10T09:31:04;11.70;;;10.50;;
49710;SDS011;35602;44.534;18.696;2023-06-10T09:36:08;11.23;;;9.98;;
49710;SDS011;35602;44.534;18.696;2023-06-10T09:41:09;11.82;;;10.63;;
49710;SDS011;35602;44.534;18.696;2023-06-10T09:46:14;12.15;;;10.95;;
49710;SDS011;35602;44.534;18.696;2023-06-10T09:51:16;11.52;;;10.35;;
49710;SDS011;35602;44.534;18.696;2023-06-10T09:56:17;11.10;;;10.00;;
49710;SDS011;35602;44.534;18.696;2023-06-10T10:01:18;11.55;;;10.35;;
49710;SDS011;35602;44.534;18.696;2023-06-10T10:06:20;11.82;;;10.63;;
49710;SDS011;35602;44.534;18.696;2023-06-10T10:11:21;10.95;;;9.90;;
49710;SDS011;35602;44.534;18.696;2023-06-10T10:16:26;11.82;;;10.73;;
49710;SDS011;35602;44.534;18.696;2023-06-10T10:21:35;12.07;;;10.88;;
49710;SDS011;35602;44.534;18.696;2023-06-10T10:26:41;10.55;;;9.48;;
49710;SDS011;35602;44.534;18.696;2023-06-10T10:31:43;11.48;;;10.38;;
49710;SDS011;35602;44.534;18.696;2023-06-10T10:36:45;11.05;;;9.98;;
49710;SDS011;35602;44.534;18.696;2023-06-10T10:41:46;11.85;;;10.65;;
49710;SDS011;35602;44.534;18.696;2023-06-10T10:46:48;12.32;;;11.10;;
49710;SDS011;35602;44.534;18.696;2023-06-10T10:51:54;10.88;;;9.88;;
49710;SDS011;35602;44.534;18.696;2023-06-10T10:57:17;12.27;;;11.07;;
49710;SDS011;35602;44.534;18.696;2023-06-10T11:02:42;11.90;;;10.75;;
49710;SDS011;35602;44.534;18.696;2023-06-10T11:07:55;12.20;;;11.00;;
49710;SDS011;35602;44.534;18.696;2023-06-10T11:12:56;13.00;;;11.70;;
49710;SDS011;35602;44.534;18.696;2023-06-10T11:34:10;12.73;;;11.52;;
49710;SDS011;35602;44.534;18.696;2023-06-10T11:39:12;12.98;;;11.52;;
49710;SDS011;35602;44.534;18.696;2023-06-10T11:44:13;13.32;;;12.02;;
49710;SDS011;35602;44.534;18.696;2023-06-10T11:49:14;14.55;;;13.10;;
49710;SDS011;35602;44.534;18.696;2023-06-10T11:54:15;13.80;;;12.40;;
49710;SDS011;35602;44.534;18.696;2023-06-10T11:59:16;13.77;;;12.32;;
49710;SDS011;35602;44.534;18.696;2023-06-10T12:04:18;13.52;;;12.15;;
49710;SDS011;35602;44.534;18.696;2023-06-10T12:09:23;15.68;;;14.02;;
49710;SDS011;35602;44.534;18.696;2023-06-10T12:19:57;15.15;;;13.55;;
49710;SDS011;35602;44.534;18.696;2023-06-10T12:25:00;13.88;;;12.37;;
49710;SDS011;35602;44.534;18.696;2023-06-10T12:30:04;14.43;;;12.77;;
49710;SDS011;35602;44.534;18.696;2023-06-10T12:35:06;13.82;;;12.43;;
49710;SDS011;35602;44.534;18.696;2023-06-10T12:40:08;15.05;;;13.27;;
49710;SDS011;35602;44.534;18.696;2023-06-10T12:45:10;14.68;;;13.15;;
49710;SDS011;35602;44.534;18.696;2023-06-10T12:50:12;14.63;;;12.98;;
49710;SDS011;35602;44.534;18.696;2023-06-10T12:55:13;13.73;;;12.30;;
49710;SDS011;35602;44.534;18.696;2023-06-10T13:00:14;14.18;;;12.75;;
49710;SDS011;35602;44.534;18.696;2023-06-10T13:05:17;14.60;;;13.10;;
49710;SDS011;35602;44.534;18.696;2023-06-10T13:10:18;13.50;;;11.95;;
49710;SDS011;35602;44.534;18.696;2023-06-10T13:15:21;14.23;;;12.73;;
49710;SDS011;35602;44.534;18.696;2023-06-10T13:20:22;13.27;;;11.95;;
49710;SDS011;35602;44.534;18.696;2023-06-10T13:25:22;13.68;;;11.80;;
49710;SDS011;35602;44.534;18.696;2023-06-10T13:30:24;14.15;;;12.75;;
49710;SDS011;35602;44.534;18.696;2023-06-10T13:35:26;14.05;;;12.55;;
49710;SDS011;35602;44.534;18.696;2023-06-10T13:40:27;12.65;;;11.38;;
49710;SDS011;35602;44.534;18.696;2023-06-10T13:45:28;13.93;;;12.52;;
49710;SDS011;35602;44.534;18.696;2023-06-10T13:50:29;14.35;;;12.85;;
49710;SDS011;35602;44.534;18.696;2023-06-10T13:55:29;14.48;;;12.98;;
49710;SDS011;35602;44.534;18.696;2023-06-10T14:00:30;14.18;;;12.75;;
49710;SDS011;35602;44.534;18.696;2023-06-10T14:05:31;13.40;;;12.10;;
49710;SDS011;35602;44.534;18.696;2023-06-10T14:10:33;13.77;;;12.48;;
49710;SDS011;35602;44.534;18.696;2023-06-10T14:15:34;14.20;;;12.70;;
49710;SDS011;35602;44.534;18.696;2023-06-10T14:20:35;13.32;;;12.00;;
49710;SDS011;35602;44.534;18.696;2023-06-10T14:25:36;13.40;;;12.00;;
49710;SDS011;35602;44.534;18.696;2023-06-10T14:30:37;13.45;;;12.15;;
49710;SDS011;35602;44.534;18.696;2023-06-10T14:35:38;13.62;;;11.93;;
49710;SDS011;35602;44.534;18.696;2023-06-10T14:40:39;13.38;;;12.13;;
49710;SDS011;35602;44.534;18.696;2023-06-10T14:45:40;13.05;;;11.75;;
49710;SDS011;35602;44.534;18.696;2023-06-10T14:50:41;13.98;;;12.48;;
49710;SDS011;35602;44.534;18.696;2023-06-10T14:55:45;12.93;;;11.73;;
49710;SDS011;35602;44.534;18.696;2023-06-10T15:00:46;13.82;;;12.43;;
49710;SDS011;35602;44.534;18.696;2023-06-10T15:05:47;13.52;;;12.23;;
49710;SDS011;35602;44.534;18.696;2023-06-10T15:10:49;13.15;;;11.85;;
49710;SDS011;35602;44.534;18.696;2023-06-10T15:15:50;12.90;;;11.60;;
49710;SDS011;35602;44.534;18.696;2023-06-10T15:20:52;12.93;;;11.63;;
49710;SDS011;35602;44.534;18.696;2023-06-10T15:25:53;13.15;;;11.85;;
49710;SDS011;35602;44.534;18.696;2023-06-10T15:30:54;13.05;;;11.75;;
49710;SDS011;35602;44.534;18.696;2023-06-10T15:35:54;13.52;;;12.23;;
49710;SDS011;35602;44.534;18.696;2023-06-10T15:40:55;13.15;;;11.85;;
49710;SDS011;35602;44.534;18.696;2023-06-10T15:45:56;12.82;;;11.52;;
49710;SDS011;35602;44.534;18.696;2023-06-10T15:50:57;12.77;;;11.48;;
49710;SDS011;35602;44.534;18.696;2023-06-10T15:55:58;13.35;;;12.05;;
49710;SDS011;35602;44.534;18.696;2023-06-10T16:00:58;12.05;;;10.95;;
49710;SDS011;35602;44.534;18.696;2023-06-10T16:05:59;12.50;;;11.27;;
49710;SDS011;35602;44.534;18.696;2023-06-10T16:11:00;13.27;;;11.95;;
49710;SDS011;35602;44.534;18.696;2023-06-10T16:16:01;12.63;;;11.40;;
49710;SDS011;35602;44.534;18.696;2023-06-10T16:21:02;13.10;;;11.80;;
49710;SDS011;35602;44.534;18.696;2023-06-10T16:26:03;13.73;;;12.32;;
49710;SDS011;35602;44.534;18.696;2023-06-10T16:31:04;13.05;;;11.75;;
49710;SDS011;35602;44.534;18.696;2023-06-10T16:36:05;12.93;;;11.63;;
49710;SDS011;35602;44.534;18.696;2023-06-10T16:41:06;13.82;;;12.43;;
49710;SDS011;35602;44.534;18.696;2023-06-10T16:46:07;14.10;;;12.80;;
49710;SDS011;35602;44.534;18.696;2023-06-10T16:51:08;12.32;;;11.05;;
49710;SDS011;35602;44.534;18.696;2023-06-10T16:56:09;13.52;;;12.23;;
49710;SDS011;35602;44.534;18.696;2023-06-10T17:01:09;13.30;;;12.02;;
49710;SDS011;35602;44.534;18.696;2023-06-10T17:06:10;13.70;;;12.30;;
49710;SDS011;35602;44.534;18.696;2023-06-10T17:11:11;14.25;;;12.80;;
49710;SDS011;35602;44.534;18.696;2023-06-10T17:16:12;13.45;;;12.15;;
49710;SDS011;35602;44.534;18.696;2023-06-10T17:21:13;13.07;;;11.77;;
49710;SDS011;35602;44.534;18.696;2023-06-10T17:26:14;13.75;;;12.35;;
49710;SDS011;35602;44.534;18.696;2023-06-10T17:31:15;13.02;;;11.73;;
49710;SDS011;35602;44.534;18.696;2023-06-10T17:36:16;13.32;;;11.90;;
49710;SDS011;35602;44.534;18.696;2023-06-10T17:41:17;14.05;;;12.65;;
49710;SDS011;35602;44.534;18.696;2023-06-10T17:46:18;13.25;;;11.90;;
49710;SDS011;35602;44.534;18.696;2023-06-10T17:51:19;13.23;;;11.82;;
49710;SDS011;35602;44.534;18.696;2023-06-10T17:56:20;13.05;;;11.75;;
49710;SDS011;35602;44.534;18.696;2023-06-10T18:01:21;14.25;;;12.77;;
49710;SDS011;35602;44.534;18.696;2023-06-10T18:06:22;13.35;;;12.05;;
49710;SDS011;35602;44.534;18.696;2023-06-10T18:11:22;14.80;;;12.77;;
49710;SDS011;35602;44.534;18.696;2023-06-10T18:16:23;12.80;;;11.52;;
49710;SDS011;35602;44.534;18.696;2023-06-10T18:21:26;14.68;;;13.18;;
49710;SDS011;35602;44.534;18.696;2023-06-10T18:26:27;13.27;;;11.98;;
49710;SDS011;35602;44.534;18.696;2023-06-10T18:31:28;13.75;;;12.35;;
49710;SDS011;35602;44.534;18.696;2023-06-10T18:36:29;13.65;;;12.25;;
49710;SDS011;35602;44.534;18.696;2023-06-10T18:41:30;13.90;;;12.52;;
49710;SDS011;35602;44.534;18.696;2023-06-10T18:46:31;13.52;;;12.13;;
49710;SDS011;35602;44.534;18.696;2023-06-10T18:51:31;13.57;;;12.18;;
49710;SDS011;35602;44.534;18.696;2023-06-10T18:56:32;13.32;;;11.93;;
49710;SDS011;35602;44.534;18.696;2023-06-10T19:01:33;13.75;;;12.35;;
49710;SDS011;35602;44.534;18.696;2023-06-10T19:06:34;13.60;;;12.20;;
49710;SDS011;35602;44.534;18.696;2023-06-10T19:11:37;13.18;;;11.88;;
49710;SDS011;35602;44.534;18.696;2023-06-10T19:16:38;13.27;;;11.85;;
49710;SDS011;35602;44.534;18.696;2023-06-10T19:21:39;12.80;;;11.50;;
49710;SDS011;35602;44.534;18.696;2023-06-10T19:26:40;13.52;;;12.23;;
49710;SDS011;35602;44.534;18.696;2023-06-10T19:31:41;12.65;;;11.38;;
49710;SDS011;35602;44.534;18.696;2023-06-10T19:36:42;14.27;;;12.82;;
49710;SDS011;35602;44.534;18.696;2023-06-10T19:41:43;12.63;;;11.43;;
49710;SDS011;35602;44.534;18.696;2023-06-10T19:46:45;13.43;;;11.85;;
49710;SDS011;35602;44.534;18.696;2023-06-10T19:51:47;12.15;;;11.05;;
49710;SDS011;35602;44.534;18.696;2023-06-10T19:56:49;12.65;;;10.98;;
49710;SDS011;35602;44.534;18.696;2023-06-10T20:01:50;12.85;;;11.55;;
49710;SDS011;35602;44.534;18.696;2023-06-10T20:06:51;12.15;;;10.95;;
49710;SDS011;35602;44.534;18.696;2023-06-10T20:11:52;11.82;;;10.63;;
49710;SDS011;35602;44.534;18.696;2023-06-10T20:16:53;11.95;;;10.85;;
49710;SDS011;35602;44.534;18.696;2023-06-10T20:21:54;11.43;;;10.32;;
49710;SDS011;35602;44.534;18.696;2023-06-10T20:26:55;11.50;;;10.35;;
49710;SDS011;35602;44.534;18.696;2023-06-10T20:31:55;12.13;;;10.93;;
49710;SDS011;35602;44.534;18.696;2023-06-10T20:36:56;12.70;;;11.40;;
49710;SDS011;35602;44.534;18.696;2023-06-10T20:41:57;12.25;;;11.15;;
49710;SDS011;35602;44.534;18.696;2023-06-10T20:46:58;11.98;;;10.85;;
49710;SDS011;35602;44.534;18.696;2023-06-10T20:51:59;12.32;;;10.65;;
49710;SDS011;35602;44.534;18.696;2023-06-10T20:57:00;11.65;;;10.43;;
49710;SDS011;35602;44.534;18.696;2023-06-10T21:02:00;11.38;;;10.27;;
49710;SDS011;35602;44.534;18.696;2023-06-10T21:07:04;10.65;;;9.55;;
49710;SDS011;35602;44.534;18.696;2023-06-10T21:12:05;10.77;;;9.68;;
49710;SDS011;35602;44.534;18.696;2023-06-10T21:17:07;11.40;;;10.30;;
49710;SDS011;35602;44.534;18.696;2023-06-10T21:22:08;10.77;;;9.77;;
49710;SDS011;35602;44.534;18.696;2023-06-10T21:27:08;10.27;;;9.25;;
49710;SDS011;35602;44.534;18.696;2023-06-10T21:32:10;10.30;;;9.30;;
49710;SDS011;35602;44.534;18.696;2023-06-10T21:37:11;11.40;;;10.30;;
49710;SDS011;35602;44.534;18.696;2023-06-10T21:42:12;10.43;;;9.43;;
49710;SDS011;35602;44.534;18.696;2023-06-10T21:47:13;10.32;;;9.35;;
49710;SDS011;35602;44.534;18.696;2023-06-10T21:52:14;11.38;;;10.18;;
49710;SDS011;35602;44.534;18.696;2023-06-10T21:57:15;10.65;;;9.65;;
49710;SDS011;35602;44.534;18.696;2023-06-10T22:02:16;10.50;;;9.50;;
49710;SDS011;35602;44.534;18.696;2023-06-10T22:07:17;10.38;;;9.38;;
49710;SDS011;35602;44.534;18.696;2023-06-10T22:12:18;11.05;;;9.95;;
49710;SDS011;35602;44.534;18.696;2023-06-10T22:17:19;10.82;;;9.82;;
49710;SDS011;35602;44.534;18.696;2023-06-10T22:22:20;10.38;;;9.38;;
49710;SDS011;35602;44.534;18.696;2023-06-10T22:27:21;11.20;;;10.10;;
49710;SDS011;35602;44.534;18.696;2023-06-10T22:32:22;10.57;;;9.48;;
49710;SDS011;35602;44.534;18.696;2023-06-10T22:37:23;10.02;;;9.13;;
49710;SDS011;35602;44.534;18.696;2023-06-10T22:42:24;10.43;;;9.43;;
49710;SDS011;35602;44.534;18.696;2023-06-10T22:47:25;10.52;;;9.52;;
49710;SDS011;35602;44.534;18.696;2023-06-10T22:52:25;9.73;;;8.82;;
49710;SDS011;35602;44.534;18.696;2023-06-10T22:57:26;9.63;;;8.73;;
49710;SDS011;35602;44.534;18.696;2023-06-10T23:02:27;10.68;;;9.40;;
49710;SDS011;35602;44.534;18.696;2023-06-10T23:07:28;9.60;;;8.60;;
49710;SDS011;35602;44.534;18.696;2023-06-10T23:12:29;10.10;;;9.18;;
49710;SDS011;35602;44.534;18.696;2023-06-10T23:17:29;9.45;;;8.55;;
49710;SDS011;35602;44.534;18.696;2023-06-10T23:22:31;9.63;;;8.70;;
49710;SDS011;35602;44.534;18.696;2023-06-10T23:27:31;9.68;;;8.77;;
49710;SDS011;35602;44.534;18.696;2023-06-10T23:32:33;10.13;;;9.10;;
49710;SDS011;35602;44.534;18.696;2023-06-10T23:37:33;10.00;;;9.10;;
49710;SDS011;35602;44.534;18.696;2023-06-10T23:42:35;9.45;;;8.65;;
49710;SDS011;35602;44.534;18.696;2023-06-10T23:47:35;8.82;;;8.02;;
49710;SDS011;35602;44.534;18.696;2023-06-10T23:52:37;9.02;;;8.23;;
49710;SDS011;35602;44.534;18.696;2023-06-10T23:57:38;9.13;;;8.00;;
